createdAt,value
2017-05-25T00:00:45.144Z,8.23
2017-05-25T00:03:13.437Z,6.70
2017-05-25T00:05:41.762Z,8.07
2017-05-25T00:08:10.084Z,8.05
2017-05-25T00:10:38.374Z,8.62
2017-05-25T00:13:06.852Z,8.13
2017-05-25T00:15:35.132Z,8.50
2017-05-25T00:18:03.417Z,8.12
2017-05-25T00:20:31.740Z,9.25
2017-05-25T00:23:00.036Z,9.20
2017-05-25T00:25:28.349Z,8.78
2017-05-25T00:27:56.669Z,8.23
2017-05-25T00:30:24.988Z,9.73
2017-05-25T00:32:53.288Z,8.43
2017-05-25T00:35:21.604Z,9.75
2017-05-25T00:37:49.909Z,10.02
2017-05-25T00:40:18.201Z,10.55
2017-05-25T00:42:46.521Z,10.60
2017-05-25T00:45:14.809Z,14.08
2017-05-25T00:47:43.337Z,9.02
2017-05-25T00:50:11.630Z,12.60
2017-05-25T00:52:39.936Z,10.00
2017-05-25T00:55:08.635Z,10.33
2017-05-25T00:57:36.924Z,11.63
2017-05-25T01:00:05.206Z,10.28
2017-05-25T01:02:33.520Z,9.65
2017-05-25T01:05:01.809Z,10.38
2017-05-25T01:07:29.333Z,10.62
2017-05-25T01:09:57.837Z,10.43
2017-05-25T01:12:26.133Z,9.43
2017-05-25T01:14:54.420Z,11.12
2017-05-25T01:17:22.956Z,11.58
2017-05-25T01:19:51.234Z,10.63
2017-05-25T01:22:19.519Z,9.83
2017-05-25T01:24:47.834Z,10.12
2017-05-25T01:27:16.129Z,11.00
2017-05-25T01:29:44.449Z,12.37
2017-05-25T01:32:12.740Z,12.08
2017-05-25T01:34:41.052Z,10.98
2017-05-25T01:37:09.382Z,10.97
2017-05-25T01:39:37.661Z,9.98
2017-05-25T01:42:05.961Z,10.78
2017-05-25T01:44:34.273Z,10.10
2017-05-25T01:47:02.561Z,11.83
2017-05-25T01:49:30.872Z,11.93
2017-05-25T01:51:59.181Z,13.13
2017-05-25T01:54:27.493Z,13.58
2017-05-25T01:56:55.808Z,14.60
2017-05-25T01:59:24.129Z,16.03
2017-05-25T02:01:52.435Z,17.15
2017-05-25T02:04:20.762Z,14.43
2017-05-25T02:06:49.053Z,13.93
2017-05-25T02:09:17.357Z,13.95
2017-05-25T02:11:45.691Z,14.15
2017-05-25T02:14:13.992Z,17.70
2017-05-25T02:16:42.281Z,16.45
2017-05-25T02:19:10.904Z,16.40
2017-05-25T02:21:39.188Z,15.82
2017-05-25T02:24:07.485Z,16.57
2017-05-25T02:26:36.041Z,17.75
2017-05-25T02:29:04.346Z,14.72
2017-05-25T02:31:32.636Z,16.82
2017-05-25T02:34:01.100Z,18.73
2017-05-25T02:36:29.392Z,16.80
2017-05-25T02:38:57.680Z,18.83
2017-05-25T02:41:26.000Z,16.90
2017-05-25T02:43:54.285Z,20.28
2017-05-25T02:46:22.605Z,19.17
2017-05-25T02:48:50.911Z,19.05
2017-05-25T02:51:19.421Z,18.00
2017-05-25T02:53:47.709Z,17.70
2017-05-25T02:56:15.996Z,16.02
2017-05-25T02:58:44.301Z,16.63
2017-05-25T03:01:12.589Z,14.77
2017-05-25T03:03:40.901Z,16.68
2017-05-25T03:06:09.601Z,15.78
2017-05-25T03:08:37.888Z,16.02
2017-05-25T03:11:06.172Z,14.35
2017-05-25T03:13:34.623Z,13.88
2017-05-25T03:16:02.920Z,15.95
2017-05-25T03:18:31.206Z,15.32
2017-05-25T03:20:59.677Z,14.65
2017-05-25T03:23:27.961Z,14.42
2017-05-25T03:25:56.262Z,14.10
2017-05-25T03:28:24.817Z,15.50
2017-05-25T03:30:53.117Z,15.55
2017-05-25T03:33:21.435Z,14.13
2017-05-25T03:35:49.764Z,14.47
2017-05-25T03:38:18.064Z,14.83
2017-05-25T03:40:46.447Z,14.35
2017-05-25T03:43:14.973Z,13.73
2017-05-25T03:45:43.269Z,13.13
2017-05-25T03:48:10.789Z,13.18
2017-05-25T03:50:40.021Z,12.53
2017-05-25T03:53:08.314Z,13.78
2017-05-25T03:55:36.604Z,11.40
2017-05-25T03:58:04.912Z,12.38
2017-05-25T04:00:33.218Z,10.82
2017-05-25T04:03:01.496Z,10.68
2017-05-25T04:05:29.840Z,13.53
2017-05-25T04:07:58.140Z,13.90
2017-05-25T04:10:26.424Z,12.87
2017-05-25T04:12:54.805Z,14.17
2017-05-25T04:15:23.085Z,13.12
2017-05-25T04:17:51.456Z,14.90
2017-05-25T04:20:19.788Z,15.02
2017-05-25T04:22:48.062Z,14.78
2017-05-25T04:25:16.343Z,14.70
2017-05-25T04:27:44.647Z,15.93
2017-05-25T04:30:12.939Z,15.28
2017-05-25T04:32:41.312Z,16.60
2017-05-25T04:35:09.701Z,16.45
2017-05-25T04:37:38.080Z,14.77
2017-05-25T04:40:06.360Z,15.62
2017-05-25T04:42:34.668Z,16.02
2017-05-25T04:45:02.947Z,15.88
2017-05-25T04:47:31.251Z,12.35
2017-05-25T04:49:59.527Z,15.65
2017-05-25T04:52:27.940Z,16.08
2017-05-25T04:54:56.269Z,16.13
2017-05-25T04:57:24.551Z,15.27
2017-05-25T04:59:52.876Z,16.77
2017-05-25T05:02:21.156Z,14.73
2017-05-25T05:04:49.439Z,15.63
2017-05-25T05:07:17.743Z,15.37
2017-05-25T05:09:46.020Z,17.68
2017-05-25T05:12:14.399Z,14.20
2017-05-25T05:14:43.084Z,14.97
2017-05-25T05:17:11.367Z,14.65
2017-05-25T05:19:39.648Z,14.43
2017-05-25T05:22:08.332Z,15.00
2017-05-25T05:24:36.611Z,14.95
2017-05-25T05:27:04.984Z,15.25
2017-05-25T05:29:34.489Z,14.52
2017-05-25T05:32:02.774Z,15.18
2017-05-25T05:34:31.127Z,19.48
2017-05-25T05:36:59.500Z,15.32
2017-05-25T05:39:27.985Z,16.07
2017-05-25T05:41:56.364Z,15.22
2017-05-25T05:44:24.745Z,13.92
2017-05-25T05:46:53.121Z,12.03
2017-05-25T05:49:21.500Z,14.22
2017-05-25T05:51:49.781Z,14.10
2017-05-25T05:54:18.085Z,13.68
2017-05-25T05:56:46.400Z,12.82
2017-05-25T05:59:14.707Z,12.23
2017-05-25T06:01:43.601Z,12.42
2017-05-25T06:04:11.884Z,12.92
2017-05-25T06:06:40.256Z,13.18
2017-05-25T06:09:08.738Z,12.62
2017-05-25T06:11:37.080Z,11.77
2017-05-25T06:14:05.392Z,13.52
2017-05-25T06:16:33.723Z,14.90
2017-05-25T06:19:02.008Z,12.55
2017-05-25T06:21:30.328Z,12.13
2017-05-25T06:23:58.633Z,10.88
2017-05-25T06:26:26.939Z,10.97
2017-05-25T06:28:55.220Z,11.30
2017-05-25T06:31:23.729Z,11.83
2017-05-25T06:33:52.312Z,10.78
2017-05-25T06:36:20.684Z,11.90
2017-05-25T06:38:48.976Z,12.53
2017-05-25T06:41:17.283Z,13.03
2017-05-25T06:43:45.564Z,12.88
2017-05-25T06:46:13.901Z,13.75
2017-05-25T06:48:42.225Z,14.92
2017-05-25T06:51:10.553Z,14.95
2017-05-25T06:53:38.933Z,13.42
2017-05-25T06:56:07.297Z,13.07
2017-05-25T06:58:35.706Z,14.10
2017-05-25T07:01:04.679Z,14.02
2017-05-25T07:03:33.069Z,12.93
2017-05-25T07:06:01.457Z,13.63
2017-05-25T07:08:29.772Z,11.85
2017-05-25T07:10:58.208Z,14.38
2017-05-25T07:13:26.499Z,16.40
2017-05-25T07:15:54.795Z,17.13
2017-05-25T07:18:23.348Z,17.27
2017-05-25T07:20:52.029Z,16.10
2017-05-25T07:23:20.508Z,15.20
2017-05-25T07:25:48.829Z,15.48
2017-05-25T07:28:17.154Z,13.97
2017-05-25T07:30:45.551Z,14.88
2017-05-25T07:33:13.929Z,17.03
2017-05-25T07:35:42.229Z,16.58
2017-05-25T07:38:10.536Z,15.50
2017-05-25T07:40:38.859Z,17.42
2017-05-25T07:43:07.160Z,18.02
2017-05-25T07:45:35.728Z,14.17
2017-05-25T07:48:04.025Z,15.83
2017-05-25T07:50:32.325Z,16.53
2017-05-25T07:53:00.652Z,17.08
2017-05-25T07:55:28.949Z,16.55
2017-05-25T07:57:57.370Z,14.67
2017-05-25T08:00:24.897Z,13.88
2017-05-25T08:02:53.194Z,15.40
2017-05-25T08:05:21.520Z,13.03
2017-05-25T08:07:49.917Z,14.08
2017-05-25T08:10:18.213Z,13.40
2017-05-25T08:12:46.633Z,13.83
2017-05-25T08:15:14.954Z,18.17
2017-05-25T08:17:43.330Z,20.15
2017-05-25T08:20:11.716Z,19.70
2017-05-25T08:22:40.013Z,21.40
2017-05-25T08:25:08.369Z,21.17
2017-05-25T08:27:36.766Z,21.50
2017-05-25T08:30:05.133Z,20.00
2017-05-25T08:32:33.508Z,20.38
2017-05-25T08:35:01.889Z,20.23
2017-05-25T08:37:30.189Z,19.37
2017-05-25T08:39:58.546Z,18.92
2017-05-25T08:42:26.922Z,17.27
2017-05-25T08:44:55.220Z,16.35
2017-05-25T08:47:23.577Z,16.27
2017-05-25T08:49:51.896Z,14.88
2017-05-25T08:52:20.238Z,17.35
2017-05-25T08:54:48.616Z,17.37
2017-05-25T08:57:17.008Z,17.75
2017-05-25T08:59:45.305Z,17.80
2017-05-25T09:02:13.756Z,18.03
2017-05-25T09:04:42.138Z,16.88
2017-05-25T09:07:10.814Z,19.07
2017-05-25T09:09:39.296Z,15.55
2017-05-25T09:12:07.684Z,17.10
2017-05-25T09:14:36.053Z,16.57
2017-05-25T09:17:04.434Z,16.83
2017-05-25T09:19:32.728Z,16.25
2017-05-25T09:22:01.050Z,18.68
2017-05-25T09:24:29.474Z,17.18
2017-05-25T09:26:57.768Z,15.77
2017-05-25T09:29:26.106Z,15.25
2017-05-25T09:31:54.401Z,15.40
2017-05-25T09:34:22.697Z,17.65
2017-05-25T09:36:51.159Z,18.87
2017-05-25T09:39:19.457Z,19.57
2017-05-25T09:41:47.823Z,10.75
2017-05-25T09:44:16.170Z,11.67
2017-05-25T09:46:44.473Z,11.60
2017-05-25T09:49:12.849Z,11.58
2017-05-25T09:51:41.181Z,9.28
2017-05-25T09:54:09.477Z,9.83
2017-05-25T09:56:37.792Z,10.30
2017-05-25T09:59:06.153Z,10.45
2017-05-25T10:01:34.538Z,10.67
2017-05-25T10:04:03.122Z,9.83
2017-05-25T10:06:31.501Z,9.68
2017-05-25T10:08:59.877Z,8.32
2017-05-25T10:11:28.256Z,9.38
2017-05-25T10:13:56.640Z,9.05
2017-05-25T10:16:24.935Z,9.55
2017-05-25T10:18:53.257Z,11.27
2017-05-25T10:21:21.564Z,8.35
2017-05-25T10:23:49.859Z,9.33
2017-05-25T10:26:18.228Z,7.88
2017-05-25T10:28:46.710Z,8.17
2017-05-25T10:31:15.005Z,6.96
2017-05-25T10:33:43.365Z,6.52
2017-05-25T10:36:11.742Z,6.62
2017-05-25T10:38:40.070Z,7.06
2017-05-25T10:41:08.361Z,6.38
2017-05-25T10:43:36.649Z,6.32
2017-05-25T10:46:05.261Z,7.63
2017-05-25T10:48:33.632Z,6.42
2017-05-25T10:51:01.933Z,6.45
2017-05-25T10:53:30.256Z,6.60
2017-05-25T10:55:58.680Z,7.15
2017-05-25T10:58:27.060Z,8.16
2017-05-25T11:00:55.397Z,8.18
2017-05-25T11:03:23.697Z,6.88
2017-05-25T11:05:52.189Z,5.90
2017-05-25T11:08:20.476Z,8.03
2017-05-25T11:10:48.766Z,5.80
2017-05-25T11:13:17.078Z,6.94
2017-05-25T11:15:45.397Z,6.77
2017-05-25T11:18:13.725Z,6.70
2017-05-25T11:20:42.016Z,9.55
2017-05-25T11:23:10.381Z,8.32
2017-05-25T11:25:38.758Z,7.42
2017-05-25T11:28:07.242Z,6.52
2017-05-25T11:30:35.528Z,8.38
2017-05-25T11:33:03.822Z,6.47
2017-05-25T11:35:32.174Z,8.12
2017-05-25T11:38:00.514Z,6.45
2017-05-25T11:40:28.835Z,8.00
2017-05-25T11:42:57.116Z,6.18
2017-05-25T11:45:25.591Z,8.58
2017-05-25T11:47:53.882Z,7.50
2017-05-25T11:50:22.171Z,8.84
2017-05-25T11:52:50.525Z,7.62
2017-05-25T11:55:18.805Z,6.24
2017-05-25T11:57:47.092Z,6.78
2017-05-25T12:00:15.401Z,9.82
2017-05-25T12:02:43.734Z,5.46
2017-05-25T12:05:12.029Z,7.84
2017-05-25T12:07:40.389Z,6.62
2017-05-25T12:10:08.687Z,7.94
2017-05-25T12:12:36.977Z,7.64
2017-05-25T12:15:05.305Z,7.36
2017-05-25T12:17:33.588Z,6.36
2017-05-25T12:20:01.870Z,7.54
2017-05-25T12:22:30.269Z,7.46
2017-05-25T12:24:58.552Z,7.74
2017-05-25T12:27:26.910Z,6.60
2017-05-25T12:29:55.245Z,7.74
2017-05-25T12:32:23.529Z,5.92
2017-05-25T12:34:51.816Z,6.88
2017-05-25T12:37:20.134Z,7.90
2017-05-25T12:39:48.420Z,7.58
2017-05-25T12:42:16.874Z,6.08
2017-05-25T12:44:45.164Z,7.46
2017-05-25T12:47:13.454Z,6.90
2017-05-25T12:49:41.806Z,7.36
2017-05-25T12:52:10.101Z,6.30
2017-05-25T12:54:38.412Z,6.80
2017-05-25T12:57:06.701Z,6.38
2017-05-25T12:59:34.986Z,5.34
2017-05-25T13:02:03.300Z,6.12
2017-05-25T13:04:31.575Z,7.06
2017-05-25T13:06:59.880Z,6.68
2017-05-25T13:09:28.196Z,6.76
2017-05-25T13:11:56.480Z,7.76
2017-05-25T13:14:24.801Z,6.44
2017-05-25T13:16:53.081Z,5.18
2017-05-25T13:19:21.362Z,5.92
2017-05-25T13:21:49.679Z,6.68
2017-05-25T13:24:17.959Z,4.82
2017-05-25T13:26:46.232Z,4.86
2017-05-25T13:29:14.552Z,4.52
2017-05-25T13:31:42.832Z,4.04
2017-05-25T13:34:11.112Z,4.46
2017-05-25T13:36:39.437Z,4.84
2017-05-25T13:39:07.716Z,5.54
2017-05-25T13:41:35.996Z,5.88
2017-05-25T13:44:04.301Z,4.08
2017-05-25T13:46:32.583Z,3.62
2017-05-25T13:49:00.908Z,4.22
2017-05-25T13:51:29.190Z,4.60
2017-05-25T13:53:57.476Z,4.32
2017-05-25T13:56:25.991Z,4.56
2017-05-25T13:58:54.367Z,4.14
2017-05-25T14:01:22.748Z,4.24
2017-05-25T14:03:51.160Z,4.50
2017-05-25T14:06:19.439Z,3.48
2017-05-25T14:08:47.723Z,4.48
2017-05-25T14:11:16.065Z,3.82
2017-05-25T14:13:44.386Z,3.30
2017-05-25T14:16:12.724Z,3.92
2017-05-25T14:18:41.209Z,3.66
2017-05-25T14:21:09.579Z,3.74
2017-05-25T14:23:37.861Z,3.62
2017-05-25T14:26:06.236Z,4.18
2017-05-25T14:28:34.606Z,3.70
2017-05-25T14:31:03.108Z,4.00
2017-05-25T14:33:31.384Z,3.96
2017-05-25T14:35:59.668Z,5.68
2017-05-25T14:38:28.024Z,4.50
2017-05-25T14:40:56.408Z,3.90
2017-05-25T14:43:24.716Z,3.82
2017-05-25T14:45:53.065Z,10.64
2017-05-25T14:48:21.444Z,4.40
2017-05-25T14:50:49.720Z,3.62
2017-05-25T14:53:18.000Z,4.88
2017-05-25T14:55:46.436Z,5.84
2017-05-25T14:58:14.770Z,3.84
2017-05-25T15:00:43.052Z,3.60
2017-05-25T15:03:11.523Z,4.66
2017-05-25T15:05:39.813Z,3.70
2017-05-25T15:08:08.178Z,3.56
2017-05-25T15:10:36.519Z,4.36
2017-05-25T15:13:04.840Z,3.50
2017-05-25T15:15:33.117Z,4.18
2017-05-25T15:18:01.494Z,3.56
2017-05-25T15:20:29.818Z,5.14
2017-05-25T15:22:58.151Z,4.58
2017-05-25T15:25:26.431Z,3.58
2017-05-25T15:27:54.735Z,4.14
2017-05-25T15:30:22.429Z,5.14
2017-05-25T15:32:50.711Z,5.76
2017-05-25T15:35:18.995Z,5.94
2017-05-25T15:37:47.384Z,5.12
2017-05-25T15:40:15.677Z,5.12
2017-05-25T15:42:45.296Z,4.74
2017-05-25T15:45:13.659Z,4.30
2017-05-25T15:47:41.977Z,4.00
2017-05-25T15:50:10.304Z,4.10
2017-05-25T15:52:38.601Z,4.06
2017-05-25T15:55:07.902Z,4.52
2017-05-25T15:57:36.244Z,3.64
2017-05-25T16:00:04.526Z,6.00
2017-05-25T16:02:32.825Z,4.80
2017-05-25T16:05:01.447Z,5.16
2017-05-25T16:07:29.771Z,5.04
2017-05-25T16:09:58.076Z,5.86
2017-05-25T16:12:26.429Z,4.72
2017-05-25T16:14:54.748Z,4.74
2017-05-25T16:17:22.631Z,4.50
2017-05-25T16:19:50.916Z,5.30
2017-05-25T16:22:19.224Z,6.12
2017-05-25T16:24:47.507Z,7.14
2017-05-25T16:27:15.893Z,4.74
2017-05-25T16:29:44.198Z,7.56
2017-05-25T16:32:12.513Z,4.40
2017-05-25T16:34:40.836Z,5.08
2017-05-25T16:37:09.189Z,4.40
2017-05-25T16:39:37.464Z,4.58
2017-05-25T16:42:05.755Z,4.10
2017-05-25T16:44:34.232Z,4.90
2017-05-25T16:47:02.728Z,4.20
2017-05-25T16:49:31.151Z,3.80
2017-05-25T16:51:59.492Z,5.00
2017-05-25T16:54:27.770Z,4.94
2017-05-25T16:56:56.152Z,3.98
2017-05-25T16:59:24.533Z,3.84
2017-05-25T17:01:53.011Z,4.32
2017-05-25T17:04:21.293Z,3.92
2017-05-25T17:06:49.600Z,4.94
2017-05-25T17:09:18.288Z,3.90
2017-05-25T17:11:47.051Z,3.94
2017-05-25T17:14:15.414Z,3.98
2017-05-25T17:16:43.742Z,3.60
2017-05-25T17:19:12.285Z,3.56
2017-05-25T17:21:40.569Z,4.02
2017-05-25T17:24:08.852Z,4.22
2017-05-25T17:26:37.222Z,4.68
2017-05-25T17:29:05.508Z,6.14
2017-05-25T17:31:33.792Z,4.56
2017-05-25T17:34:02.199Z,5.00
2017-05-25T17:36:30.539Z,3.84
2017-05-25T17:38:58.839Z,3.42
2017-05-25T17:41:27.153Z,4.46
2017-05-25T17:43:55.424Z,3.96
2017-05-25T17:46:23.713Z,3.70
2017-05-25T17:48:52.342Z,4.64
2017-05-25T17:51:20.761Z,3.66
2017-05-25T17:53:49.114Z,4.18
2017-05-25T17:56:17.431Z,7.98
2017-05-25T17:58:45.720Z,4.24
2017-05-25T18:01:14.950Z,4.06
2017-05-25T18:03:43.414Z,3.86
2017-05-25T18:06:11.701Z,5.28
2017-05-25T18:08:40.014Z,4.36
2017-05-25T18:11:08.621Z,3.94
2017-05-25T18:13:36.899Z,6.42
2017-05-25T18:16:05.167Z,5.22
2017-05-25T18:18:33.491Z,4.66
2017-05-25T18:21:01.768Z,5.74
2017-05-25T18:23:30.160Z,13.10
2017-05-25T18:25:58.559Z,3.94
2017-05-25T18:28:26.866Z,4.08
2017-05-25T18:30:55.189Z,3.80
2017-05-25T18:33:23.564Z,4.76
2017-05-25T18:35:51.876Z,4.72
2017-05-25T18:38:20.216Z,5.26
2017-05-25T18:40:48.491Z,4.72
2017-05-25T18:43:16.778Z,4.16
2017-05-25T18:45:45.102Z,4.06
2017-05-25T18:48:13.432Z,4.32
2017-05-25T18:50:40.937Z,4.38
2017-05-25T18:53:09.235Z,4.46
2017-05-25T18:55:37.535Z,5.22
2017-05-25T18:58:06.023Z,6.04
2017-05-25T19:00:34.295Z,5.68
2017-05-25T19:03:02.671Z,4.12
2017-05-25T19:05:31.056Z,6.84
2017-05-25T19:07:59.333Z,4.52
2017-05-25T19:10:27.894Z,4.18
2017-05-25T19:12:56.173Z,5.68
2017-05-25T19:15:24.468Z,4.64
2017-05-25T19:17:52.995Z,6.68
2017-05-25T19:20:21.317Z,5.74
2017-05-25T19:22:49.601Z,4.88
2017-05-25T19:25:17.973Z,4.76
2017-05-25T19:27:46.284Z,11.40
2017-05-25T19:30:14.568Z,5.80
2017-05-25T19:32:42.909Z,5.30
2017-05-25T19:35:11.389Z,4.80
2017-05-25T19:37:39.668Z,6.64
2017-05-25T19:40:07.996Z,5.60
2017-05-25T19:42:36.280Z,4.90
2017-05-25T19:45:04.566Z,8.62
2017-05-25T19:47:32.914Z,6.00
2017-05-25T19:50:01.220Z,4.96
2017-05-25T19:52:29.540Z,4.24
2017-05-25T19:54:57.878Z,5.00
2017-05-25T19:57:26.193Z,5.70
2017-05-25T19:59:54.533Z,6.06
2017-05-25T20:02:22.907Z,4.32
2017-05-25T20:04:51.284Z,5.24
2017-05-25T20:07:19.790Z,5.98
2017-05-25T20:09:48.149Z,6.44
2017-05-25T20:12:16.523Z,6.64
2017-05-25T20:14:44.843Z,9.92
2017-05-25T20:17:13.189Z,5.02
2017-05-25T20:19:41.568Z,5.58
2017-05-25T20:22:09.867Z,7.06
2017-05-25T20:24:38.320Z,5.00
2017-05-25T20:27:06.699Z,4.73
2017-05-25T20:29:35.077Z,5.27
2017-05-25T20:32:03.367Z,4.68
2017-05-25T20:34:31.651Z,3.88
2017-05-25T20:37:00.068Z,4.28
2017-05-25T20:39:28.358Z,4.68
2017-05-25T20:41:56.643Z,3.70
2017-05-25T20:44:24.960Z,4.43
2017-05-25T20:46:52.521Z,4.23
2017-05-25T20:49:20.804Z,4.23
2017-05-25T20:51:49.081Z,4.08
2017-05-25T20:54:17.388Z,4.35
2017-05-25T20:56:45.675Z,7.06
2017-05-25T20:59:14.088Z,4.73
2017-05-25T21:01:42.471Z,4.68
2017-05-25T21:04:10.787Z,4.70
2017-05-25T21:06:39.128Z,4.27
2017-05-25T21:09:07.589Z,6.53
2017-05-25T21:11:35.960Z,5.45
2017-05-25T21:14:04.347Z,5.67
2017-05-25T21:16:32.715Z,5.10
2017-05-25T21:19:01.019Z,4.22
2017-05-25T21:21:29.369Z,4.82
2017-05-25T21:23:57.656Z,5.47
2017-05-25T21:26:26.136Z,3.62
2017-05-25T21:28:54.419Z,4.60
2017-05-25T21:31:22.719Z,4.43
2017-05-25T21:33:51.197Z,5.40
2017-05-25T21:36:19.485Z,4.83
2017-05-25T21:38:47.763Z,5.43
2017-05-25T21:41:16.137Z,4.32
2017-05-25T21:43:44.428Z,5.53
2017-05-25T21:46:12.785Z,4.60
2017-05-25T21:48:41.120Z,4.23
2017-05-25T21:51:09.401Z,4.20
2017-05-25T21:53:37.687Z,5.12
2017-05-25T21:56:06.087Z,4.43
2017-05-25T21:58:34.392Z,4.75
2017-05-25T22:01:02.854Z,4.38
2017-05-25T22:03:31.177Z,5.68
2017-05-25T22:05:59.464Z,7.25
2017-05-25T22:08:27.748Z,4.12
2017-05-25T22:10:56.061Z,4.30
2017-05-25T22:13:24.384Z,4.35
2017-05-25T22:15:52.667Z,4.33
2017-05-25T22:18:20.948Z,6.15
2017-05-25T22:20:49.476Z,5.22
2017-05-25T22:23:17.857Z,7.78
2017-05-25T22:25:46.232Z,4.38
2017-05-25T22:28:14.612Z,6.22
2017-05-25T22:30:42.991Z,4.68
2017-05-25T22:33:11.273Z,4.88
2017-05-25T22:35:39.600Z,4.80
2017-05-25T22:38:07.928Z,4.73
2017-05-25T22:40:36.210Z,4.97
2017-05-25T22:43:04.584Z,5.05
2017-05-25T22:45:32.868Z,5.28
2017-05-25T22:48:01.232Z,6.20
2017-05-25T22:50:29.539Z,6.30
2017-05-25T22:52:57.817Z,4.88
2017-05-25T22:55:26.164Z,7.68
2017-05-25T22:57:54.543Z,4.30
2017-05-25T23:00:22.819Z,5.33
2017-05-25T23:02:51.203Z,6.97
2017-05-25T23:05:19.680Z,6.85
2017-05-25T23:07:48.174Z,5.68
2017-05-25T23:10:16.461Z,5.60
2017-05-25T23:12:45.025Z,6.93
2017-05-25T23:15:13.305Z,5.50
2017-05-25T23:17:41.669Z,5.48
2017-05-25T23:20:09.976Z,5.37
2017-05-25T23:22:38.344Z,5.68
2017-05-25T23:25:06.624Z,6.08
2017-05-25T23:27:35.096Z,5.88
2017-05-25T23:30:03.486Z,6.82
2017-05-25T23:32:31.856Z,5.08
2017-05-25T23:35:00.232Z,6.27
2017-05-25T23:37:28.596Z,5.67
2017-05-25T23:39:56.896Z,5.38
2017-05-25T23:42:25.375Z,8.40
2017-05-25T23:44:53.751Z,6.45
2017-05-25T23:47:22.032Z,5.83
2017-05-25T23:49:50.412Z,6.13
2017-05-25T23:52:18.692Z,6.45
2017-05-25T23:54:47.076Z,9.12
2017-05-25T23:57:15.549Z,7.17
2017-05-25T23:59:43.929Z,6.47
